sensor_id;sensor_type;location;lat;lon;timestamp;P1;durP1;ratioP1;P2;durP2;ratioP2
4210;SDS011;2119;48.828;12.396;2024-01-16T00:03:15;8.97;;;5.00;;
4210;SDS011;2119;48.828;12.396;2024-01-16T00:08:16;7.88;;;5.30;;
4210;SDS011;2119;48.828;12.396;2024-01-16T00:13:16;8.60;;;5.23;;
4210;SDS011;2119;48.828;12.396;2024-01-16T00:18:16;6.53;;;5.10;;
4210;SDS011;2119;48.828;12.396;2024-01-16T00:23:17;5.67;;;4.87;;
4210;SDS011;2119;48.828;12.396;2024-01-16T00:28:17;5.80;;;4.73;;
4210;SDS011;2119;48.828;12.396;2024-01-16T00:33:19;4.90;;;4.50;;
4210;SDS011;2119;48.828;12.396;2024-01-16T00:38:20;7.30;;;4.50;;
4210;SDS011;2119;48.828;12.396;2024-01-16T00:43:20;6.60;;;4.43;;
4210;SDS011;2119;48.828;12.396;2024-01-16T00:48:20;4.77;;;4.00;;
4210;SDS011;2119;48.828;12.396;2024-01-16T00:53:20;6.10;;;4.53;;
4210;SDS011;2119;48.828;12.396;2024-01-16T00:58:24;8.70;;;4.90;;
4210;SDS011;2119;48.828;12.396;2024-01-16T01:03:24;6.73;;;4.93;;
4210;SDS011;2119;48.828;12.396;2024-01-16T01:08:24;5.63;;;5.10;;
4210;SDS011;2119;48.828;12.396;2024-01-16T01:13:24;8.83;;;4.70;;
4210;SDS011;2119;48.828;12.396;2024-01-16T01:18:25;9.43;;;4.67;;
4210;SDS011;2119;48.828;12.396;2024-01-16T01:23:25;10.23;;;5.05;;
4210;SDS011;2119;48.828;12.396;2024-01-16T01:28:25;7.25;;;4.75;;
4210;SDS011;2119;48.828;12.396;2024-01-16T01:33:25;8.02;;;5.03;;
4210;SDS011;2119;48.828;12.396;2024-01-16T01:38:26;4.77;;;4.30;;
4210;SDS011;2119;48.828;12.396;2024-01-16T01:43:26;6.27;;;4.33;;
4210;SDS011;2119;48.828;12.396;2024-01-16T01:48:26;7.00;;;3.90;;
4210;SDS011;2119;48.828;12.396;2024-01-16T01:53:27;5.07;;;4.00;;
4210;SDS011;2119;48.828;12.396;2024-01-16T01:58:28;6.70;;;4.90;;
4210;SDS011;2119;48.828;12.396;2024-01-16T02:03:28;6.27;;;4.23;;
4210;SDS011;2119;48.828;12.396;2024-01-16T02:08:29;4.10;;;3.70;;
4210;SDS011;2119;48.828;12.396;2024-01-16T02:13:29;6.07;;;4.40;;
4210;SDS011;2119;48.828;12.396;2024-01-16T02:18:30;6.25;;;4.20;;
4210;SDS011;2119;48.828;12.396;2024-01-16T02:23:30;5.25;;;4.20;;
4210;SDS011;2119;48.828;12.396;2024-01-16T02:28:31;6.77;;;3.37;;
4210;SDS011;2119;48.828;12.396;2024-01-16T02:33:31;4.10;;;3.25;;
4210;SDS011;2119;48.828;12.396;2024-01-16T02:38:31;8.13;;;3.60;;
4210;SDS011;2119;48.828;12.396;2024-01-16T02:43:31;3.92;;;3.53;;
4210;SDS011;2119;48.828;12.396;2024-01-16T02:48:32;3.77;;;3.17;;
4210;SDS011;2119;48.828;12.396;2024-01-16T02:53:32;5.60;;;4.07;;
4210;SDS011;2119;48.828;12.396;2024-01-16T02:58:32;6.50;;;4.27;;
4210;SDS011;2119;48.828;12.396;2024-01-16T03:03:32;8.93;;;4.70;;
4210;SDS011;2119;48.828;12.396;2024-01-16T03:08:32;4.85;;;3.53;;
4210;SDS011;2119;48.828;12.396;2024-01-16T03:13:33;5.73;;;4.00;;
4210;SDS011;2119;48.828;12.396;2024-01-16T03:18:33;4.53;;;3.40;;
4210;SDS011;2119;48.828;12.396;2024-01-16T03:23:33;6.03;;;4.05;;
4210;SDS011;2119;48.828;12.396;2024-01-16T03:28:33;6.20;;;4.20;;
4210;SDS011;2119;48.828;12.396;2024-01-16T03:33:34;7.53;;;4.00;;
4210;SDS011;2119;48.828;12.396;2024-01-16T03:38:53;8.30;;;3.73;;
4210;SDS011;2119;48.828;12.396;2024-01-16T03:43:54;5.88;;;3.58;;
4210;SDS011;2119;48.828;12.396;2024-01-16T03:48:57;5.70;;;3.93;;
4210;SDS011;2119;48.828;12.396;2024-01-16T03:53:57;6.97;;;4.50;;
4210;SDS011;2119;48.828;12.396;2024-01-16T03:58:57;5.20;;;4.37;;
4210;SDS011;2119;48.828;12.396;2024-01-16T04:03:58;5.63;;;4.40;;
4210;SDS011;2119;48.828;12.396;2024-01-16T04:08:58;4.38;;;3.90;;
4210;SDS011;2119;48.828;12.396;2024-01-16T04:13:58;4.60;;;3.90;;
4210;SDS011;2119;48.828;12.396;2024-01-16T04:18:58;8.57;;;3.77;;
4210;SDS011;2119;48.828;12.396;2024-01-16T04:23:59;5.33;;;3.80;;
4210;SDS011;2119;48.828;12.396;2024-01-16T04:28:59;4.97;;;4.05;;
4210;SDS011;2119;48.828;12.396;2024-01-16T04:34:00;4.83;;;3.80;;
4210;SDS011;2119;48.828;12.396;2024-01-16T04:39:00;6.00;;;4.47;;
4210;SDS011;2119;48.828;12.396;2024-01-16T04:44:00;6.22;;;3.40;;
4210;SDS011;2119;48.828;12.396;2024-01-16T04:49:00;4.93;;;3.70;;
4210;SDS011;2119;48.828;12.396;2024-01-16T04:54:00;8.20;;;6.13;;
4210;SDS011;2119;48.828;12.396;2024-01-16T04:59:01;11.35;;;5.90;;
4210;SDS011;2119;48.828;12.396;2024-01-16T05:04:01;8.43;;;4.50;;
4210;SDS011;2119;48.828;12.396;2024-01-16T05:09:01;5.22;;;4.45;;
4210;SDS011;2119;48.828;12.396;2024-01-16T05:14:03;6.60;;;4.07;;
4210;SDS011;2119;48.828;12.396;2024-01-16T05:19:03;5.03;;;4.27;;
4210;SDS011;2119;48.828;12.396;2024-01-16T05:24:03;3.30;;;3.00;;
4210;SDS011;2119;48.828;12.396;2024-01-16T05:29:03;5.50;;;3.70;;
4210;SDS011;2119;48.828;12.396;2024-01-16T05:34:03;7.33;;;3.07;;
4210;SDS011;2119;48.828;12.396;2024-01-16T05:39:04;6.70;;;3.83;;
4210;SDS011;2119;48.828;12.396;2024-01-16T05:44:05;6.57;;;3.78;;
4210;SDS011;2119;48.828;12.396;2024-01-16T05:49:05;4.13;;;3.72;;
4210;SDS011;2119;48.828;12.396;2024-01-16T05:54:05;4.53;;;3.55;;
4210;SDS011;2119;48.828;12.396;2024-01-16T05:59:05;6.03;;;3.73;;
4210;SDS011;2119;48.828;12.396;2024-01-16T06:04:07;3.97;;;3.67;;
4210;SDS011;2119;48.828;12.396;2024-01-16T06:09:07;6.03;;;4.28;;
4210;SDS011;2119;48.828;12.396;2024-01-16T06:14:07;11.65;;;7.63;;
4210;SDS011;2119;48.828;12.396;2024-01-16T06:19:08;9.20;;;6.50;;
4210;SDS011;2119;48.828;12.396;2024-01-16T06:24:08;7.80;;;4.83;;
4210;SDS011;2119;48.828;12.396;2024-01-16T06:29:08;7.05;;;4.03;;
4210;SDS011;2119;48.828;12.396;2024-01-16T06:34:08;4.22;;;3.80;;
4210;SDS011;2119;48.828;12.396;2024-01-16T06:39:08;5.07;;;4.43;;
4210;SDS011;2119;48.828;12.396;2024-01-16T06:44:09;5.93;;;4.22;;
4210;SDS011;2119;48.828;12.396;2024-01-16T06:49:09;6.10;;;4.67;;
4210;SDS011;2119;48.828;12.396;2024-01-16T06:54:09;8.60;;;4.95;;
4210;SDS011;2119;48.828;12.396;2024-01-16T06:59:09;8.50;;;4.72;;
4210;SDS011;2119;48.828;12.396;2024-01-16T07:04:10;6.30;;;4.32;;
4210;SDS011;2119;48.828;12.396;2024-01-16T07:09:10;9.17;;;4.43;;
4210;SDS011;2119;48.828;12.396;2024-01-16T07:14:13;6.27;;;4.77;;
4210;SDS011;2119;48.828;12.396;2024-01-16T07:19:13;9.00;;;6.22;;
4210;SDS011;2119;48.828;12.396;2024-01-16T07:24:13;13.10;;;7.80;;
4210;SDS011;2119;48.828;12.396;2024-01-16T07:29:14;8.65;;;5.60;;
4210;SDS011;2119;48.828;12.396;2024-01-16T07:34:14;16.13;;;6.07;;
4210;SDS011;2119;48.828;12.396;2024-01-16T07:39:19;10.20;;;5.70;;
4210;SDS011;2119;48.828;12.396;2024-01-16T07:44:20;8.93;;;4.97;;
4210;SDS011;2119;48.828;12.396;2024-01-16T07:49:22;7.40;;;4.28;;
4210;SDS011;2119;48.828;12.396;2024-01-16T07:54:23;7.70;;;5.17;;
4210;SDS011;2119;48.828;12.396;2024-01-16T07:59:25;7.43;;;4.00;;
4210;SDS011;2119;48.828;12.396;2024-01-16T08:04:26;7.60;;;4.83;;
4210;SDS011;2119;48.828;12.396;2024-01-16T08:09:27;5.30;;;4.70;;
4210;SDS011;2119;48.828;12.396;2024-01-16T08:14:27;7.93;;;4.33;;
4210;SDS011;2119;48.828;12.396;2024-01-16T08:19:28;7.50;;;4.53;;
4210;SDS011;2119;48.828;12.396;2024-01-16T08:24:29;7.20;;;5.10;;
4210;SDS011;2119;48.828;12.396;2024-01-16T08:29:30;7.87;;;4.87;;
4210;SDS011;2119;48.828;12.396;2024-01-16T08:34:31;11.18;;;5.95;;
4210;SDS011;2119;48.828;12.396;2024-01-16T08:39:31;6.07;;;4.70;;
4210;SDS011;2119;48.828;12.396;2024-01-16T08:44:33;8.23;;;5.20;;
4210;SDS011;2119;48.828;12.396;2024-01-16T08:49:33;6.85;;;4.60;;
4210;SDS011;2119;48.828;12.396;2024-01-16T08:54:33;6.37;;;5.23;;
4210;SDS011;2119;48.828;12.396;2024-01-16T08:59:34;7.23;;;5.90;;
4210;SDS011;2119;48.828;12.396;2024-01-16T09:04:34;5.07;;;3.60;;
4210;SDS011;2119;48.828;12.396;2024-01-16T09:09:34;7.40;;;5.07;;
4210;SDS011;2119;48.828;12.396;2024-01-16T09:14:34;14.77;;;5.53;;
4210;SDS011;2119;48.828;12.396;2024-01-16T09:19:34;8.13;;;5.47;;
4210;SDS011;2119;48.828;12.396;2024-01-16T09:24:35;9.13;;;4.70;;
4210;SDS011;2119;48.828;12.396;2024-01-16T09:29:35;11.05;;;6.80;;
4210;SDS011;2119;48.828;12.396;2024-01-16T09:34:35;7.00;;;6.13;;
4210;SDS011;2119;48.828;12.396;2024-01-16T09:39:35;8.75;;;6.35;;
4210;SDS011;2119;48.828;12.396;2024-01-16T09:44:37;10.20;;;6.43;;
4210;SDS011;2119;48.828;12.396;2024-01-16T09:49:38;9.10;;;6.78;;
4210;SDS011;2119;48.828;12.396;2024-01-16T09:54:39;15.40;;;8.80;;
4210;SDS011;2119;48.828;12.396;2024-01-16T09:59:39;8.07;;;6.60;;
4210;SDS011;2119;48.828;12.396;2024-01-16T10:04:41;10.27;;;6.80;;
4210;SDS011;2119;48.828;12.396;2024-01-16T10:09:42;7.47;;;6.63;;
4210;SDS011;2119;48.828;12.396;2024-01-16T10:14:42;10.13;;;5.77;;
4210;SDS011;2119;48.828;12.396;2024-01-16T10:19:52;7.60;;;4.43;;
4210;SDS011;2119;48.828;12.396;2024-01-16T10:25:07;4.43;;;3.93;;
4210;SDS011;2119;48.828;12.396;2024-01-16T10:30:08;7.33;;;6.20;;
4210;SDS011;2119;48.828;12.396;2024-01-16T10:35:13;7.37;;;5.40;;
4210;SDS011;2119;48.828;12.396;2024-01-16T10:40:17;5.27;;;4.30;;
4210;SDS011;2119;48.828;12.396;2024-01-16T10:45:18;9.70;;;5.17;;
4210;SDS011;2119;48.828;12.396;2024-01-16T10:50:18;7.23;;;4.97;;
4210;SDS011;2119;48.828;12.396;2024-01-16T10:55:20;6.23;;;4.60;;
4210;SDS011;2119;48.828;12.396;2024-01-16T11:00:22;4.80;;;4.10;;
4210;SDS011;2119;48.828;12.396;2024-01-16T11:05:22;7.27;;;4.93;;
4210;SDS011;2119;48.828;12.396;2024-01-16T11:10:23;6.47;;;4.18;;
4210;SDS011;2119;48.828;12.396;2024-01-16T11:15:24;7.13;;;5.17;;
4210;SDS011;2119;48.828;12.396;2024-01-16T11:20:25;8.77;;;6.23;;
4210;SDS011;2119;48.828;12.396;2024-01-16T11:25:32;6.17;;;5.23;;
4210;SDS011;2119;48.828;12.396;2024-01-16T11:30:32;12.40;;;6.77;;
4210;SDS011;2119;48.828;12.396;2024-01-16T11:35:33;9.35;;;6.40;;
4210;SDS011;2119;48.828;12.396;2024-01-16T11:40:34;6.63;;;5.47;;
4210;SDS011;2119;48.828;12.396;2024-01-16T11:50:37;13.00;;;8.60;;
4210;SDS011;2119;48.828;12.396;2024-01-16T11:55:46;6.60;;;5.33;;
4210;SDS011;2119;48.828;12.396;2024-01-16T12:00:51;8.23;;;5.50;;
4210;SDS011;2119;48.828;12.396;2024-01-16T12:05:58;7.60;;;5.03;;
4210;SDS011;2119;48.828;12.396;2024-01-16T12:10:58;6.77;;;4.00;;
4210;SDS011;2119;48.828;12.396;2024-01-16T12:16:02;5.63;;;3.70;;
4210;SDS011;2119;48.828;12.396;2024-01-16T12:21:13;4.90;;;3.50;;
4210;SDS011;2119;48.828;12.396;2024-01-16T12:26:20;4.63;;;3.60;;
4210;SDS011;2119;48.828;12.396;2024-01-16T12:31:21;5.83;;;4.27;;
4210;SDS011;2119;48.828;12.396;2024-01-16T12:36:22;4.45;;;3.95;;
4210;SDS011;2119;48.828;12.396;2024-01-16T12:41:22;7.40;;;3.80;;
4210;SDS011;2119;48.828;12.396;2024-01-16T12:46:23;5.23;;;4.23;;
4210;SDS011;2119;48.828;12.396;2024-01-16T12:51:23;7.22;;;3.88;;
4210;SDS011;2119;48.828;12.396;2024-01-16T12:56:23;5.18;;;3.88;;
4210;SDS011;2119;48.828;12.396;2024-01-16T13:01:27;7.88;;;4.63;;
4210;SDS011;2119;48.828;12.396;2024-01-16T13:06:28;5.53;;;5.00;;
4210;SDS011;2119;48.828;12.396;2024-01-16T13:11:28;8.07;;;5.78;;
4210;SDS011;2119;48.828;12.396;2024-01-16T13:16:29;6.35;;;3.20;;
4210;SDS011;2119;48.828;12.396;2024-01-16T13:21:29;5.18;;;3.63;;
4210;SDS011;2119;48.828;12.396;2024-01-16T13:26:29;4.33;;;3.93;;
4210;SDS011;2119;48.828;12.396;2024-01-16T13:31:29;5.17;;;3.77;;
4210;SDS011;2119;48.828;12.396;2024-01-16T13:36:29;6.20;;;3.90;;
4210;SDS011;2119;48.828;12.396;2024-01-16T13:41:30;6.83;;;4.20;;
4210;SDS011;2119;48.828;12.396;2024-01-16T13:46:31;7.40;;;6.20;;
4210;SDS011;2119;48.828;12.396;2024-01-16T13:51:32;9.77;;;5.87;;
4210;SDS011;2119;48.828;12.396;2024-01-16T13:56:32;8.20;;;4.13;;
4210;SDS011;2119;48.828;12.396;2024-01-16T14:01:33;5.63;;;5.03;;
4210;SDS011;2119;48.828;12.396;2024-01-16T14:06:33;6.30;;;4.80;;
4210;SDS011;2119;48.828;12.396;2024-01-16T14:11:34;12.00;;;6.00;;
4210;SDS011;2119;48.828;12.396;2024-01-16T14:16:34;7.85;;;6.53;;
4210;SDS011;2119;48.828;12.396;2024-01-16T14:21:34;3.45;;;3.05;;
4210;SDS011;2119;48.828;12.396;2024-01-16T14:26:35;7.60;;;6.30;;
4210;SDS011;2119;48.828;12.396;2024-01-16T14:31:35;3.40;;;3.13;;
4210;SDS011;2119;48.828;12.396;2024-01-16T14:36:35;7.50;;;4.45;;
4210;SDS011;2119;48.828;12.396;2024-01-16T14:41:35;5.67;;;4.37;;
4210;SDS011;2119;48.828;12.396;2024-01-16T14:46:36;6.63;;;3.67;;
4210;SDS011;2119;48.828;12.396;2024-01-16T14:51:36;5.93;;;4.07;;
4210;SDS011;2119;48.828;12.396;2024-01-16T14:56:37;8.07;;;3.40;;
4210;SDS011;2119;48.828;12.396;2024-01-16T15:01:37;4.20;;;3.10;;
4210;SDS011;2119;48.828;12.396;2024-01-16T15:06:37;4.57;;;2.90;;
4210;SDS011;2119;48.828;12.396;2024-01-16T15:11:38;3.87;;;2.97;;
4210;SDS011;2119;48.828;12.396;2024-01-16T15:16:38;4.47;;;3.40;;
4210;SDS011;2119;48.828;12.396;2024-01-16T15:21:38;7.03;;;3.73;;
4210;SDS011;2119;48.828;12.396;2024-01-16T15:26:39;11.00;;;5.93;;
4210;SDS011;2119;48.828;12.396;2024-01-16T15:31:39;10.43;;;7.07;;
4210;SDS011;2119;48.828;12.396;2024-01-16T15:36:39;15.10;;;7.30;;
4210;SDS011;2119;48.828;12.396;2024-01-16T15:41:40;15.87;;;9.50;;
4210;SDS011;2119;48.828;12.396;2024-01-16T15:46:53;20.10;;;10.90;;
4210;SDS011;2119;48.828;12.396;2024-01-16T15:51:53;10.37;;;7.30;;
4210;SDS011;2119;48.828;12.396;2024-01-16T15:56:53;11.30;;;7.90;;
4210;SDS011;2119;48.828;12.396;2024-01-16T16:01:57;13.40;;;8.77;;
4210;SDS011;2119;48.828;12.396;2024-01-16T16:06:57;16.65;;;8.80;;
4210;SDS011;2119;48.828;12.396;2024-01-16T16:11:57;20.65;;;14.10;;
4210;SDS011;2119;48.828;12.396;2024-01-16T16:16:57;20.00;;;12.40;;
4210;SDS011;2119;48.828;12.396;2024-01-16T16:22:03;16.13;;;8.80;;
4210;SDS011;2119;48.828;12.396;2024-01-16T16:27:07;21.87;;;12.00;;
4210;SDS011;2119;48.828;12.396;2024-01-16T16:32:21;17.80;;;11.87;;
4210;SDS011;2119;48.828;12.396;2024-01-16T16:37:21;21.25;;;13.77;;
4210;SDS011;2119;48.828;12.396;2024-01-16T16:42:23;18.67;;;13.00;;
4210;SDS011;2119;48.828;12.396;2024-01-16T16:47:27;14.10;;;8.73;;
4210;SDS011;2119;48.828;12.396;2024-01-16T16:52:27;16.58;;;9.80;;
4210;SDS011;2119;48.828;12.396;2024-01-16T16:57:27;25.53;;;14.13;;
4210;SDS011;2119;48.828;12.396;2024-01-16T17:02:27;23.10;;;15.18;;
4210;SDS011;2119;48.828;12.396;2024-01-16T17:07:27;20.27;;;13.47;;
4210;SDS011;2119;48.828;12.396;2024-01-16T17:12:28;29.33;;;14.70;;
4210;SDS011;2119;48.828;12.396;2024-01-16T17:17:28;36.63;;;15.57;;
4210;SDS011;2119;48.828;12.396;2024-01-16T17:22:32;19.20;;;13.57;;
4210;SDS011;2119;48.828;12.396;2024-01-16T17:27:32;27.37;;;19.17;;
4210;SDS011;2119;48.828;12.396;2024-01-16T17:32:32;20.63;;;16.27;;
4210;SDS011;2119;48.828;12.396;2024-01-16T17:37:32;20.53;;;12.60;;
4210;SDS011;2119;48.828;12.396;2024-01-16T17:42:32;21.48;;;11.23;;
4210;SDS011;2119;48.828;12.396;2024-01-16T17:47:33;18.33;;;11.43;;
4210;SDS011;2119;48.828;12.396;2024-01-16T17:52:33;13.77;;;9.32;;
4210;SDS011;2119;48.828;12.396;2024-01-16T17:57:33;17.80;;;9.73;;
4210;SDS011;2119;48.828;12.396;2024-01-16T18:02:34;13.13;;;8.90;;
4210;SDS011;2119;48.828;12.396;2024-01-16T18:07:35;11.33;;;8.17;;
4210;SDS011;2119;48.828;12.396;2024-01-16T18:12:37;17.00;;;8.77;;
4210;SDS011;2119;48.828;12.396;2024-01-16T18:17:45;10.20;;;7.50;;
4210;SDS011;2119;48.828;12.396;2024-01-16T18:22:45;14.80;;;8.27;;
4210;SDS011;2119;48.828;12.396;2024-01-16T18:27:51;16.60;;;9.10;;
4210;SDS011;2119;48.828;12.396;2024-01-16T18:32:57;20.80;;;12.23;;
4210;SDS011;2119;48.828;12.396;2024-01-16T18:37:57;18.55;;;13.27;;
4210;SDS011;2119;48.828;12.396;2024-01-16T18:42:57;22.58;;;14.30;;
4210;SDS011;2119;48.828;12.396;2024-01-16T18:47:57;27.08;;;14.85;;
4210;SDS011;2119;48.828;12.396;2024-01-16T18:52:58;21.67;;;13.87;;
4210;SDS011;2119;48.828;12.396;2024-01-16T18:57:58;14.20;;;10.60;;
4210;SDS011;2119;48.828;12.396;2024-01-16T19:03:01;16.20;;;11.90;;
4210;SDS011;2119;48.828;12.396;2024-01-16T19:08:02;15.05;;;11.23;;
4210;SDS011;2119;48.828;12.396;2024-01-16T19:13:04;14.93;;;11.23;;
4210;SDS011;2119;48.828;12.396;2024-01-16T19:18:04;17.80;;;11.57;;
4210;SDS011;2119;48.828;12.396;2024-01-16T19:23:04;17.45;;;11.52;;
4210;SDS011;2119;48.828;12.396;2024-01-16T19:28:05;20.43;;;13.00;;
4210;SDS011;2119;48.828;12.396;2024-01-16T19:33:06;19.13;;;13.77;;
4210;SDS011;2119;48.828;12.396;2024-01-16T19:38:08;19.17;;;13.20;;
4210;SDS011;2119;48.828;12.396;2024-01-16T19:43:08;28.63;;;14.35;;
4210;SDS011;2119;48.828;12.396;2024-01-16T19:48:08;30.67;;;17.80;;
4210;SDS011;2119;48.828;12.396;2024-01-16T19:53:12;26.70;;;11.50;;
4210;SDS011;2119;48.828;12.396;2024-01-16T19:58:14;17.50;;;10.60;;
4210;SDS011;2119;48.828;12.396;2024-01-16T20:03:15;19.37;;;10.47;;
4210;SDS011;2119;48.828;12.396;2024-01-16T20:08:15;24.80;;;12.98;;
4210;SDS011;2119;48.828;12.396;2024-01-16T20:13:15;20.33;;;12.93;;
4210;SDS011;2119;48.828;12.396;2024-01-16T20:18:16;15.57;;;10.33;;
4210;SDS011;2119;48.828;12.396;2024-01-16T20:23:16;12.18;;;8.65;;
4210;SDS011;2119;48.828;12.396;2024-01-16T20:28:16;17.25;;;9.05;;
4210;SDS011;2119;48.828;12.396;2024-01-16T20:33:17;13.80;;;9.30;;
4210;SDS011;2119;48.828;12.396;2024-01-16T20:38:17;17.23;;;9.45;;
4210;SDS011;2119;48.828;12.396;2024-01-16T20:43:17;15.27;;;9.63;;
4210;SDS011;2119;48.828;12.396;2024-01-16T20:48:18;13.10;;;7.90;;
4210;SDS011;2119;48.828;12.396;2024-01-16T20:53:18;15.95;;;9.38;;
4210;SDS011;2119;48.828;12.396;2024-01-16T20:58:20;19.37;;;9.03;;
4210;SDS011;2119;48.828;12.396;2024-01-16T21:03:21;16.40;;;10.10;;
4210;SDS011;2119;48.828;12.396;2024-01-16T21:08:23;63.07;;;30.90;;
4210;SDS011;2119;48.828;12.396;2024-01-16T21:13:23;53.73;;;21.80;;
4210;SDS011;2119;48.828;12.396;2024-01-16T21:18:26;36.03;;;16.23;;
4210;SDS011;2119;48.828;12.396;2024-01-16T21:23:28;33.77;;;17.53;;
4210;SDS011;2119;48.828;12.396;2024-01-16T21:28:28;29.93;;;17.27;;
4210;SDS011;2119;48.828;12.396;2024-01-16T21:33:29;32.43;;;17.30;;
4210;SDS011;2119;48.828;12.396;2024-01-16T21:38:30;35.07;;;16.57;;
4210;SDS011;2119;48.828;12.396;2024-01-16T21:43:30;36.53;;;18.88;;
4210;SDS011;2119;48.828;12.396;2024-01-16T21:48:30;50.88;;;24.73;;
4210;SDS011;2119;48.828;12.396;2024-01-16T21:53:31;47.83;;;22.50;;
4210;SDS011;2119;48.828;12.396;2024-01-16T21:58:35;37.43;;;19.00;;
4210;SDS011;2119;48.828;12.396;2024-01-16T22:03:39;21.73;;;13.03;;
4210;SDS011;2119;48.828;12.396;2024-01-16T22:08:40;16.90;;;10.07;;
4210;SDS011;2119;48.828;12.396;2024-01-16T22:13:40;20.73;;;10.87;;
4210;SDS011;2119;48.828;12.396;2024-01-16T22:18:40;15.38;;;9.40;;
4210;SDS011;2119;48.828;12.396;2024-01-16T22:23:40;15.80;;;11.13;;
4210;SDS011;2119;48.828;12.396;2024-01-16T22:28:41;16.65;;;10.70;;
4210;SDS011;2119;48.828;12.396;2024-01-16T22:33:44;19.80;;;11.20;;
4210;SDS011;2119;48.828;12.396;2024-01-16T22:38:44;19.60;;;11.67;;
4210;SDS011;2119;48.828;12.396;2024-01-16T22:43:47;19.63;;;10.50;;
4210;SDS011;2119;48.828;12.396;2024-01-16T22:48:47;14.48;;;9.35;;
4210;SDS011;2119;48.828;12.396;2024-01-16T22:53:47;16.70;;;10.30;;
4210;SDS011;2119;48.828;12.396;2024-01-16T22:58:48;20.83;;;11.85;;
4210;SDS011;2119;48.828;12.396;2024-01-16T23:03:48;20.50;;;11.45;;
4210;SDS011;2119;48.828;12.396;2024-01-16T23:08:49;15.70;;;9.23;;
4210;SDS011;2119;48.828;12.396;2024-01-16T23:13:53;17.83;;;9.20;;
4210;SDS011;2119;48.828;12.396;2024-01-16T23:18:53;16.40;;;9.70;;
4210;SDS011;2119;48.828;12.396;2024-01-16T23:23:54;15.90;;;9.00;;
4210;SDS011;2119;48.828;12.396;2024-01-16T23:28:55;21.47;;;12.43;;
4210;SDS011;2119;48.828;12.396;2024-01-16T23:33:55;19.58;;;12.15;;
4210;SDS011;2119;48.828;12.396;2024-01-16T23:38:55;25.77;;;12.75;;
4210;SDS011;2119;48.828;12.396;2024-01-16T23:43:56;37.10;;;17.20;;
4210;SDS011;2119;48.828;12.396;2024-01-16T23:48:56;35.77;;;15.97;;
4210;SDS011;2119;48.828;12.396;2024-01-16T23:53:57;16.02;;;9.98;;
4210;SDS011;2119;48.828;12.396;2024-01-16T23:58:57;13.00;;;8.27;;
